Terminal Aerodrome Forecast
Issued by NWS

Home | Current Version | Previous Version | Text Only | Print | Product List | Glossary On
Versions: 1 2 3 4 5 6 7 8 9 10 11 12 13 14
000
FTUS46 KSEW 301100
TAFBFI
TAF
KBFI 301125Z 3012/3112 18005KT P6SM FEW060 OVC080
     FM301700 19007KT P6SM SCT045 BKN100 OVC200
     FM310400 16008KT P6SM -RA OVC050
     FM310800 20014G22KT P6SM -RA OVC021=

USA.gov is the U.S. government's official web portal to all federal, state and local government web resources and services.